Time;durP1;ratioP1;P1;durP2;ratioP2;P2;SDS_P1;SDS_P2;PMS_P1;PMS_P2;Temp;Humidity;BMP_temperature;BMP_pressure;BME280_temperature;BME280_humidity;BME280_pressure;Samples;Min_cycle;Max_cycle;Signal;HPM_P1;HPM_P2
2022/06/18 00:00:56;;;;;;;;;13.67;13.67;;;;;25.70;100.00;101455.34;5073783;28;45366;-77
2022/06/18 00:03:23;;;;;;;;;14.33;13.33;;;;;25.62;100.00;101450.34;5073631;28;45315;-77
2022/06/18 00:05:51;;;;;;;;;12.67;12.67;;;;;25.65;100.00;101449.03;5087902;28;45153;-77
2022/06/18 00:08:23;;;;;;;;;14.33;14.33;;;;;25.71;100.00;101443.38;5095641;28;45243;-76
2022/06/18 00:13:39;;;;;;;;;16.67;16.00;;;;;25.65;100.00;101438.16;5076918;28;45313;-76
2022/06/18 00:13:46;;;;;;;;;16.00;14.67;;;;;25.62;100.00;101433.22;5074745;28;45221;-77
2022/06/18 00:16:15;;;;;;;;;13.33;13.33;;;;;25.66;100.00;101432.44;5089213;28;45125;-77
2022/06/18 00:18:40;;;;;;;;;13.67;13.67;;;;;25.61;100.00;101434.31;5075086;28;45315;-77
2022/06/18 00:21:08;;;;;;;;;12.67;12.67;;;;;25.57;100.00;101432.09;5074449;28;45446;-77
2022/06/18 00:23:37;;;;;;;;;15.00;14.00;;;;;25.54;100.00;101423.59;5073936;28;45150;-76
2022/06/18 00:26:02;;;;;;;;;17.00;15.67;;;;;25.45;100.00;101420.53;5068008;28;48380;-77
2022/06/18 00:28:30;;;;;;;;;16.33;15.67;;;;;25.40;100.00;101423.22;5078987;28;45484;-76
2022/06/18 00:30:56;;;;;;;;;12.67;12.67;;;;;25.32;100.00;101429.97;5085619;28;45420;-76
2022/06/18 00:33:22;;;;;;;;;15.00;14.33;;;;;25.29;100.00;101425.84;5073524;28;44774;-77
2022/06/18 00:35:50;;;;;;;;;16.00;16.00;;;;;25.24;100.00;101422.25;5073441;28;46313;-76
2022/06/18 00:38:46;;;;;;;;;16.00;16.00;;;;;25.25;100.00;101419.28;5075939;28;45259;-76
2022/06/18 00:41:18;;;;;;;;;16.33;16.33;;;;;25.23;100.00;101415.19;5062240;28;45296;-76
2022/06/18 00:43:58;;;;;;;;;14.67;14.67;;;;;25.16;100.00;101424.34;5070663;28;45271;-77
2022/06/18 00:46:33;;;;;;;;;18.33;16.33;;;;;25.11;100.00;101423.50;5073255;28;45418;-77
2022/06/18 00:49:22;;;;;;;;;15.00;14.67;;;;;25.13;100.00;101415.88;5076909;28;45564;-77
2022/06/18 00:51:54;;;;;;;;;13.00;13.00;;;;;25.07;100.00;101424.00;5094005;28;44720;-76
2022/06/18 00:54:25;;;;;;;;;15.00;14.00;;;;;24.98;100.00;101422.81;5079484;28;45272;-76
2022/06/18 00:56:59;;;;;;;;;15.00;14.67;;;;;25.01;100.00;101429.63;5084934;28;46647;-77
2022/06/18 00:59:37;;;;;;;;;17.67;16.67;;;;;24.92;100.00;101429.25;5073363;28;45405;-76
2022/06/18 01:02:03;;;;;;;;;17.00;17.00;;;;;24.84;100.00;101427.78;5083549;28;45573;-77
2022/06/18 01:04:32;;;;;;;;;13.67;11.00;;;;;24.82;100.00;101430.78;5082299;27;45588;-77
2022/06/18 01:07:30;;;;;;;;;17.00;15.33;;;;;24.74;100.00;101430.38;5065018;28;46388;-76
2022/06/18 01:09:58;;;;;;;;;15.67;15.67;;;;;24.68;100.00;101433.06;5079432;28;45229;-76
2022/06/18 01:12:25;;;;;;;;;16.33;15.00;;;;;24.64;100.00;101421.06;5084324;28;45407;-75
2022/06/18 01:15:00;;;;;;;;;15.00;14.00;;;;;24.64;100.00;101426.50;5072027;28;46117;-77
2022/06/18 01:17:25;;;;;;;;;12.00;12.00;;;;;24.56;100.00;101430.47;5083951;28;45347;-75
2022/06/18 01:19:51;;;;;;;;;15.67;15.67;;;;;24.55;100.00;101438.88;5068513;28;45714;-76
2022/06/18 01:22:52;;;;;;;;;15.67;15.67;;;;;24.79;100.00;101431.28;5074716;28;44666;-76
2022/06/18 01:25:18;;;;;;;;;16.33;16.33;;;;;24.49;100.00;101432.56;5073362;28;45286;-77
2022/06/18 01:27:43;;;;;;;;;15.00;14.00;;;;;24.42;100.00;101419.13;5073811;28;46601;-76
2022/06/18 01:30:14;;;;;;;;;15.67;15.00;;;;;24.39;100.00;101418.84;5074103;28;45283;-76
2022/06/18 01:32:40;;;;;;;;;6.33;6.33;;;;;24.26;100.00;101422.72;5074866;28;45202;-76
2022/06/18 01:35:06;;;;;;;;;14.00;14.00;;;;;24.24;100.00;101409.41;5071602;28;46301;-76
2022/06/18 01:37:32;;;;;;;;;12.33;12.33;;;;;24.33;100.00;101418.75;5075291;28;48183;-76
2022/06/18 01:39:57;;;;;;;;;14.67;14.67;;;;;24.30;100.00;101416.53;5074738;28;45211;-76
2022/06/18 01:42:27;;;;;;;;;11.00;10.33;;;;;24.30;100.00;101413.81;5072123;28;45281;-76
2022/06/18 01:44:58;;;;;;;;;13.00;13.00;;;;;24.33;100.00;101412.50;5067966;28;46013;-75
2022/06/18 01:47:31;;;;;;;;;10.33;10.33;;;;;24.32;100.00;101410.88;5075184;28;46299;-76
2022/06/18 01:50:10;;;;;;;;;10.67;10.67;;;;;24.29;100.00;101406.75;5092849;28;45478;-76
2022/06/18 01:52:48;;;;;;;;;12.67;11.67;;;;;24.24;100.00;101405.88;5073207;28;45276;-75
2022/06/18 01:55:19;;;;;;;;;11.00;11.00;;;;;24.25;100.00;101407.50;5071732;28;46430;-76
2022/06/18 01:57:51;;;;;;;;;12.33;12.00;;;;;24.25;100.00;101407.50;5076101;28;46483;-76
2022/06/18 02:00:23;;;;;;;;;11.00;11.00;;;;;24.26;100.00;101401.84;5091630;28;45317;-75
2022/06/18 02:02:50;;;;;;;;;10.33;10.33;;;;;24.23;100.00;101407.75;5074894;28;45330;-77
2022/06/18 02:05:17;;;;;;;;;12.00;12.00;;;;;24.22;100.00;101403.41;5069127;28;47250;-76
2022/06/18 02:07:44;;;;;;;;;11.67;11.67;;;;;24.21;100.00;101407.19;5071538;28;47373;-76
2022/06/18 02:10:18;;;;;;;;;10.67;10.67;;;;;24.07;100.00;101402.06;5082192;28;45367;-77
2022/06/18 02:12:44;;;;;;;;;10.33;10.00;;;;;23.94;100.00;101397.81;5067917;28;45399;-76
2022/06/18 02:15:18;;;;;;;;;11.00;10.67;;;;;23.87;100.00;101399.91;5067830;28;45319;-76
2022/06/18 02:17:44;;;;;;;;;11.00;11.00;;;;;23.79;100.00;101397.63;5081582;28;45686;-75
2022/06/18 02:20:27;;;;;;;;;14.33;13.33;;;;;23.86;100.00;101400.13;5076681;28;45400;-75
2022/06/18 02:22:55;;;;;;;;;12.33;12.33;;;;;23.87;100.00;101396.34;5075073;28;44880;-75
2022/06/18 02:25:23;;;;;;;;;11.33;11.33;;;;;23.90;100.00;101398.56;5087655;28;46004;-75
2022/06/18 02:27:54;;;;;;;;;12.00;12.00;;;;;23.87;100.00;101396.34;5078657;28;46231;-75
2022/06/18 02:30:23;;;;;;;;;13.33;13.33;;;;;23.83;100.00;101388.69;5069560;28;44747;-76
2022/06/18 02:33:10;;;;;;;;;13.00;13.00;;;;;23.75;100.00;101386.41;5068683;28;45265;-75
2022/06/18 02:35:36;;;;;;;;;11.00;11.00;;;;;23.74;100.00;101379.34;5069914;28;45624;-76
2022/06/18 02:38:12;;;;;;;;;13.33;13.33;;;;;23.82;100.00;101376.22;5069983;28;45521;-76
2022/06/18 02:40:38;;;;;;;;;14.67;14.67;;;;;23.55;100.00;101376.88;5066734;28;45350;-75
2022/06/18 02:43:03;;;;;;;;;11.33;11.00;;;;;23.49;100.00;101372.44;5064419;28;45485;-75
2022/06/18 02:45:31;;;;;;;;;15.67;13.67;;;;;23.46;100.00;101370.22;5064520;28;46149;-74
2022/06/18 02:47:59;;;;;;;;;15.00;14.00;;;;;23.40;100.00;101369.31;5074584;28;46386;-75
2022/06/18 02:50:28;;;;;;;;;13.33;13.33;;;;;23.44;100.00;101367.75;5063833;28;45335;-74
2022/06/18 02:53:00;;;;;;;;;13.00;13.00;;;;;23.37;100.00;101350.03;5067739;28;45332;-75
2022/06/18 02:55:30;;;;;;;;;15.00;14.00;;;;;23.42;100.00;101358.22;5072179;28;45348;-75
2022/06/18 02:58:02;;;;;;;;;14.67;14.67;;;;;23.37;100.00;101352.72;5063273;28;45343;-74
2022/06/18 03:00:28;;;;;;;;;10.33;10.00;;;;;23.33;100.00;101355.91;5063301;28;45345;-75
2022/06/18 03:02:54;;;;;;;;;11.67;11.67;;;;;23.27;100.00;101348.75;5078419;28;45334;-74
2022/06/18 03:05:22;;;;;;;;;13.00;13.00;;;;;23.28;100.00;101350.38;5071673;27;45369;-75
2022/06/18 03:07:48;;;;;;;;;15.00;12.33;;;;;23.22;100.00;101339.72;5081256;28;45610;-74
2022/06/18 03:12:59;;;;;;;;;12.00;11.33;;;;;23.23;100.00;101330.50;5065000;28;45333;-74
2022/06/18 03:15:24;;;;;;;;;11.33;11.33;;;;;23.24;100.00;101326.72;5050871;28;46258;-74
2022/06/18 03:17:50;;;;;;;;;12.00;12.00;;;;;23.26;100.00;101338.97;5060708;28;47564;-74
2022/06/18 03:20:19;;;;;;;;;12.67;12.67;;;;;23.25;100.00;101328.38;5067117;28;45762;-74
2022/06/18 03:22:45;;;;;;;;;10.00;10.00;;;;;23.26;100.00;101328.13;5073009;28;45238;-74
2022/06/18 03:25:10;;;;;;;;;12.33;12.00;;;;;23.40;100.00;101328.66;5064824;28;45469;-74
2022/06/18 03:27:36;;;;;;;;;13.33;12.67;;;;;23.24;100.00;101327.53;5064754;28;46114;-75
2022/06/18 03:30:04;;;;;;;;;11.67;11.67;;;;;23.26;100.00;101327.31;5064390;28;45480;-74
2022/06/18 03:32:30;;;;;;;;;11.00;11.00;;;;;23.20;100.00;101327.19;5064500;28;45229;-74
2022/06/18 03:34:55;;;;;;;;;13.33;13.33;;;;;23.28;100.00;101317.00;5060412;28;47120;-74
2022/06/18 03:37:20;;;;;;;;;12.67;12.67;;;;;23.21;100.00;101322.63;5063896;28;45579;-74
2022/06/18 03:39:46;;;;;;;;;14.00;12.33;;;;;23.16;100.00;101326.06;5046378;28;46043;-74
2022/06/18 03:42:11;;;;;;;;;11.67;11.00;;;;;23.19;100.00;101322.03;5064556;28;45337;-74
2022/06/18 03:44:36;;;;;;;;;12.00;12.00;;;;;23.19;100.00;101317.44;5064129;28;45292;-74
2022/06/18 03:47:05;;;;;;;;;13.33;13.33;;;;;23.19;100.00;101322.03;5059735;28;48169;-74
2022/06/18 03:49:33;;;;;;;;;13.00;13.00;;;;;23.27;100.00;101321.63;5063741;28;45319;-76
2022/06/18 03:52:01;;;;;;;;;13.67;13.67;;;;;23.31;100.00;101319.25;5059659;28;45247;-74
2022/06/18 03:54:27;;;;;;;;;14.33;14.33;;;;;23.26;100.00;101313.75;5077086;28;45400;-74
2022/06/18 03:56:53;;;;;;;;;12.33;12.33;;;;;23.10;100.00;101310.78;5062891;28;45428;-74
2022/06/18 03:59:19;;;;;;;;;14.00;12.00;;;;;23.10;100.00;101316.19;5064505;28;45505;-74
2022/06/18 04:01:44;;;;;;;;;12.67;12.67;;;;;23.20;100.00;101310.13;5058054;28;45442;-74
2022/06/18 04:04:12;;;;;;;;;12.67;11.67;;;;;23.10;100.00;101310.78;5070225;27;46336;-74
2022/06/18 04:06:38;;;;;;;;;13.00;13.00;;;;;23.04;100.00;101301.72;5063768;27;45295;-74
2022/06/18 04:09:04;;;;;;;;;12.67;12.67;;;;;23.13;100.00;101313.00;5062977;28;45279;-74
2022/06/18 04:11:30;;;;;;;;;13.33;13.33;;;;;23.15;100.00;101312.75;5062818;28;45225;-74
2022/06/18 04:13:55;;;;;;;;;13.00;13.00;;;;;23.11;100.00;101317.03;5062862;28;45549;-74
2022/06/18 04:16:20;;;;;;;;;12.33;12.33;;;;;23.06;100.00;101307.75;5062851;28;45187;-74
2022/06/18 04:18:46;;;;;;;;;15.67;15.67;;;;;23.19;100.00;101312.00;5062513;28;45478;-74
2022/06/18 04:21:11;;;;;;;;;15.00;13.33;;;;;23.07;100.00;101313.97;5059459;28;45317;-74
2022/06/18 04:23:37;;;;;;;;;14.33;14.33;;;;;23.15;100.00;101304.63;5063782;28;45339;-74
2022/06/18 04:26:03;;;;;;;;;12.00;12.00;;;;;23.16;100.00;101314.38;5056850;28;47151;-74
2022/06/18 04:28:28;;;;;;;;;13.67;13.00;;;;;23.00;100.00;101310.59;5065008;28;45446;-75
2022/06/18 04:30:54;;;;;;;;;13.00;13.00;;;;;23.14;100.00;101322.78;5055365;28;45330;-74
2022/06/18 04:33:19;;;;;;;;;12.67;11.67;;;;;23.11;100.00;101311.59;5062352;28;45519;-74
2022/06/18 04:35:44;;;;;;;;;13.00;12.00;;;;;23.10;100.00;101312.69;5062867;28;45411;-74
2022/06/18 04:38:12;;;;;;;;;14.33;14.33;;;;;23.16;100.00;101314.38;5062993;28;45387;-74
2022/06/18 04:40:37;;;;;;;;;13.00;13.00;;;;;23.15;100.00;101304.63;5062142;28;45660;-74
2022/06/18 04:43:06;;;;;;;;;16.00;15.67;;;;;23.26;100.00;101311.88;5053073;28;45947;-74
2022/06/18 04:45:32;;;;;;;;;12.67;12.33;;;;;23.24;100.00;101310.44;5063565;28;45599;-74
2022/06/18 04:47:58;;;;;;;;;13.67;13.00;;;;;23.32;100.00;101308.16;5051704;28;45365;-75
2022/06/18 04:50:27;;;;;;;;;18.67;15.33;;;;;23.38;100.00;101306.38;5062832;28;45447;-75
2022/06/18 04:52:53;;;;;;;;;14.67;14.67;;;;;23.35;100.00;101311.44;5068373;27;45226;-74
2022/06/18 04:55:18;;;;;;;;;12.67;12.33;;;;;23.27;100.00;101313.50;5071982;28;45311;-74
2022/06/18 04:57:44;;;;;;;;;13.33;12.67;;;;;23.35;100.00;101317.69;5068472;27;45164;-74
2022/06/18 05:00:11;;;;;;;;;14.67;14.67;;;;;23.41;100.00;101313.19;5062249;28;45422;-74
2022/06/18 05:02:37;;;;;;;;;14.00;14.00;;;;;23.41;100.00;101314.00;5078358;28;45437;-74
2022/06/18 05:05:06;;;;;;;;;15.00;15.00;;;;;23.45;100.00;101309.75;5088387;27;46195;-74
2022/06/18 05:07:31;;;;;;;;;19.33;19.33;;;;;23.52;100.00;101325.03;5049750;28;45444;-74
2022/06/18 05:09:56;;;;;;;;;17.33;15.00;;;;;23.66;100.00;101330.94;5060472;28;45430;-73
2022/06/18 05:12:22;;;;;;;;;15.33;12.67;;;;;23.63;100.00;101326.00;5060254;28;45376;-74
2022/06/18 05:14:47;;;;;;;;;17.33;16.33;;;;;23.75;100.00;101328.59;5060474;28;45276;-73
2022/06/18 05:17:18;;;;;;;;;14.00;13.33;;;;;23.73;100.00;101328.06;5060395;28;45312;-73
2022/06/18 05:19:43;;;;;;;;;16.00;13.67;;;;;23.83;100.00;101330.91;5060723;28;45558;-73
2022/06/18 05:22:09;;;;;;;;;12.33;11.67;;;;;23.91;100.00;101332.38;5060306;28;45411;-74
2022/06/18 05:24:35;;;;;;;;;15.00;13.67;;;;;23.99;100.00;101337.38;5060987;28;48342;-74
2022/06/18 05:27:01;;;;;;;;;16.67;16.67;;;;;24.08;100.00;101324.19;5073563;27;45451;-73
2022/06/18 05:29:27;;;;;;;;;13.33;12.00;;;;;24.03;100.00;101322.22;5080949;28;45402;-73
2022/06/18 05:31:52;;;;;;;;;15.00;15.00;;;;;24.15;100.00;101332.19;5060666;28;47113;-74
2022/06/18 05:34:18;;;;;;;;;13.67;12.67;;;;;24.08;100.00;101316.88;5056754;28;46958;-74
2022/06/18 05:36:44;;;;;;;;;10.33;10.33;;;;;24.11;100.00;101325.56;5066110;28;45335;-73
2022/06/18 05:39:14;;;;;;;;;16.00;13.67;;;;;24.13;100.00;101327.00;5060748;28;45169;-74
2022/06/18 05:41:39;;;;;;;;;12.33;12.33;;;;;24.13;100.00;101335.16;5061745;28;46421;-74
2022/06/18 05:44:04;;;;;;;;;13.33;13.33;;;;;24.18;100.00;101331.69;5066332;28;48499;-74
2022/06/18 05:46:30;;;;;;;;;13.33;12.67;;;;;24.26;100.00;101333.09;5070678;28;45369;-74
2022/06/18 05:48:55;;;;;;;;;12.00;12.00;;;;;24.28;100.00;101342.66;5076838;28;45384;-74
2022/06/18 05:51:20;;;;;;;;;14.00;14.00;;;;;24.35;100.00;101326.16;5071045;28;45989;-75
2022/06/18 05:53:46;;;;;;;;;14.33;13.00;;;;;24.33;100.00;101321.00;5076431;28;47430;-74
2022/06/18 05:56:11;;;;;;;;;13.33;13.33;;;;;24.39;100.00;101321.06;5042325;28;45298;-74
2022/06/18 05:58:37;;;;;;;;;12.00;12.00;;;;;24.38;100.00;101320.22;5060851;28;45323;-74
2022/06/18 06:01:03;;;;;;;;;12.67;12.67;;;;;24.52;100.00;101322.56;5065640;28;45328;-74
2022/06/18 06:03:28;;;;;;;;;13.33;13.33;;;;;24.58;100.00;101311.47;5049125;28;47278;-74
2022/06/18 06:05:54;;;;;;;;;12.67;12.67;;;;;24.65;100.00;101315.88;5078985;27;45414;-74
2022/06/18 06:08:19;;;;;;;;;14.67;13.67;;;;;24.68;100.00;101318.09;5083711;27;45466;-74
2022/06/18 06:13:29;;;;;;;;;19.00;18.67;;;;;24.77;100.00;101315.75;5077784;27;45277;-73
2022/06/18 06:15:55;;;;;;;;;23.33;22.67;;;;;24.95;100.00;101315.41;5041318;28;45257;-73
2022/06/18 06:18:22;;;;;;;;;18.00;18.00;;;;;25.06;100.00;101305.47;5055708;28;45316;-74
2022/06/18 06:20:51;;;;;;;;;20.00;20.00;;;;;25.08;100.00;101310.63;5059494;28;45373;-74
2022/06/18 06:23:17;;;;;;;;;21.00;19.00;;;;;25.17;100.00;101313.69;5074715;27;48244;-75
2022/06/18 06:25:45;;;;;;;;;21.67;21.33;;;;;25.21;100.00;101310.19;5062590;28;45400;-73
2022/06/18 06:28:22;;;;;;;;;19.00;18.67;;;;;25.28;100.00;101307.25;5063535;28;45494;-73
2022/06/18 06:30:49;;;;;;;;;17.00;17.00;;;;;25.35;100.00;101301.59;5051147;28;46296;-73
2022/06/18 06:33:14;;;;;;;;;18.33;17.33;;;;;25.35;100.00;101301.59;5059712;28;47208;-73
2022/06/18 06:35:40;;;;;;;;;15.67;14.67;;;;;25.52;100.00;101311.47;5049137;28;45318;-74
2022/06/18 06:38:06;;;;;;;;;17.33;17.33;;;;;25.58;100.00;101299.56;5065760;28;45319;-74
2022/06/18 06:40:32;;;;;;;;;19.33;17.00;;;;;25.69;100.00;101305.91;5058959;28;45521;-74
2022/06/18 06:42:58;;;;;;;;;14.00;14.00;;;;;25.82;100.00;101310.06;5052865;28;47391;-74
2022/06/18 06:45:27;;;;;;;;;18.00;16.67;;;;;25.87;100.00;101301.09;5060749;28;45640;-74
2022/06/18 06:47:54;;;;;;;;;18.00;18.00;;;;;25.91;100.00;101308.47;5059483;28;45448;-74
2022/06/18 06:50:20;;;;;;;;;17.00;16.00;;;;;26.01;100.00;101302.25;5058856;28;45707;-73
2022/06/18 06:52:48;;;;;;;;;17.33;17.33;;;;;26.10;100.00;101313.47;5062230;28;46210;-74
2022/06/18 06:58:07;;;;;;;;;14.00;14.00;;;;;26.29;100.00;101311.13;5058939;28;45467;-73
2022/06/18 07:00:36;;;;;;;;;13.33;13.00;;;;;26.40;100.00;101317.41;5040650;28;46478;-74
2022/06/18 07:03:01;;;;;;;;;13.67;13.67;;;;;26.47;100.00;101309.00;5058487;28;47079;-73
2022/06/18 07:05:27;;;;;;;;;13.33;13.33;;;;;26.55;100.00;101321.28;5067399;27;45340;-74
2022/06/18 07:07:52;;;;;;;;;14.00;13.00;;;;;26.62;100.00;101321.00;5058982;28;45706;-74
2022/06/18 07:10:18;;;;;;;;;11.67;11.33;;;;;26.68;100.00;101319.94;5058826;28;45786;-73
2022/06/18 07:12:44;;;;;;;;;11.67;11.67;;;;;26.79;100.00;101321.56;5058819;28;45336;-74
2022/06/18 07:15:10;;;;;;;;;10.00;10.00;;;;;26.80;100.00;101314.22;5040612;28;45517;-73
2022/06/18 07:17:35;;;;;;;;;11.33;11.33;;;;;26.89;100.00;101317.22;5058905;28;45348;-73
2022/06/18 07:20:02;;;;;;;;;10.67;10.00;;;;;26.99;100.00;101325.44;5058678;28;45658;-74
2022/06/18 07:22:28;;;;;;;;;11.67;11.67;;;;;26.97;100.00;101314.78;5070583;28;45315;-74
2022/06/18 07:24:54;;;;;;;;;12.67;12.00;;;;;27.02;100.00;101316.72;5067924;28;45396;-74
2022/06/18 07:27:19;;;;;;;;;12.00;12.00;;;;;27.29;100.00;101321.09;5059816;28;45320;-76
2022/06/18 07:29:45;;;;;;;;;11.33;11.33;;;;;27.30;100.00;101316.44;5061188;28;46038;-75
2022/06/18 07:32:20;;;;;;;;;13.00;13.00;;;;;27.33;100.00;101313.97;5091179;28;46109;-75
2022/06/18 07:34:46;;;;;;;;;11.67;11.67;;;;;27.39;100.00;101312.09;5063122;28;45447;-75
2022/06/18 07:37:11;;;;;;;;;12.00;11.00;;;;;27.41;100.00;101314.53;5078404;28;45166;-76
2022/06/18 07:39:37;;;;;;;;;12.67;12.67;;;;;27.43;100.00;101312.34;5090400;28;45336;-76
2022/06/18 07:42:03;;;;;;;;;11.00;11.00;;;;;27.60;100.00;101312.84;5068335;28;45319;-73
2022/06/18 07:44:29;;;;;;;;;12.67;12.00;;;;;27.69;100.00;101320.50;5058377;28;45460;-73
2022/06/18 07:46:57;;;;;;;;;12.00;12.00;;;;;27.79;100.00;101319.66;5068882;28;45941;-73
2022/06/18 07:49:24;;;;;;;;;14.00;12.00;;;;;27.89;100.00;101297.78;5058466;28;45466;-73
2022/06/18 07:51:50;;;;;;;;;12.67;12.67;;;;;28.07;100.00;101310.00;5068940;28;45359;-72
2022/06/18 07:54:17;;;;;;;;;10.67;10.67;;;;;28.17;100.00;101316.50;5079912;28;45280;-73
2022/06/18 07:56:42;;;;;;;;;12.00;12.00;;;;;28.28;100.00;101298.97;5061716;28;45272;-73
2022/06/18 07:59:08;;;;;;;;;11.67;11.67;;;;;28.27;100.00;101297.34;5057439;28;47171;-73
2022/06/18 08:01:34;;;;;;;;;13.00;13.00;;;;;28.27;100.00;101285.59;5061452;28;46289;-72
2022/06/18 08:04:00;;;;;;;;;11.67;10.00;;;;;28.33;100.00;101289.94;5065669;27;45452;-72
2022/06/18 08:06:25;;;;;;;;;9.67;9.67;;;;;28.45;100.00;101295.06;5065677;27;45327;-72
2022/06/18 08:08:51;;;;;;;;;10.00;10.00;;;;;28.59;100.00;101295.28;5057975;28;46385;-73
2022/06/18 08:11:19;;;;;;;;;11.67;11.33;;;;;28.57;100.00;101292.00;5065359;28;45355;-72
2022/06/18 08:13:45;;;;;;;;;11.67;11.33;;;;;28.66;100.00;101292.19;5051541;28;45190;-72
2022/06/18 08:16:13;;;;;;;;;13.67;13.67;;;;;28.74;100.00;101281.47;5080237;28;45334;-72
2022/06/18 08:18:39;;;;;;;;;13.00;12.00;;;;;28.85;100.00;101282.22;5068000;28;45420;-72
2022/06/18 08:21:17;;;;;;;;;12.00;12.00;;;;;28.96;100.00;101287.63;5068994;28;45391;-73
2022/06/18 08:23:43;;;;;;;;;14.67;13.00;;;;;29.03;100.00;101282.63;5061535;28;45363;-72
2022/06/18 08:26:08;;;;;;;;;13.67;13.67;;;;;29.16;100.00;101283.09;5061296;28;45368;-72
2022/06/18 08:28:37;;;;;;;;;13.33;13.33;;;;;29.20;100.00;101278.66;5061089;28;45234;-72
2022/06/18 08:31:04;;;;;;;;;14.67;14.67;;;;;29.31;100.00;101280.22;5054094;28;47757;-72
2022/06/18 08:33:30;;;;;;;;;12.67;12.67;;;;;29.34;100.00;101268.69;5080271;28;45489;-73
2022/06/18 08:36:00;;;;;;;;;13.00;12.33;;;;;29.47;100.00;101277.28;5081409;28;45402;-73
2022/06/18 08:38:25;;;;;;;;;13.33;13.33;;;;;29.57;100.00;101269.00;5059507;28;45694;-72
2022/06/18 08:41:04;;;;;;;;;14.00;13.33;;;;;29.68;100.00;101258.75;5079162;28;45618;-73
2022/06/18 08:43:51;;;;;;;;;12.67;12.67;;;;;29.92;100.00;101257.91;5072908;27;45851;-78
2022/06/18 08:46:56;;;;;;;;;14.00;13.33;;;;;30.07;100.00;101258.78;5085234;28;45362;-79
2022/06/18 08:49:24;;;;;;;;;13.00;13.00;;;;;30.15;100.00;101254.59;5079545;28;45407;-78
2022/06/18 08:51:55;;;;;;;;;12.67;12.67;;;;;30.25;100.00;101259.94;5061511;28;45244;-79
2022/06/18 08:54:50;;;;;;;;;13.67;13.33;;;;;30.23;100.00;101257.50;5074150;28;45528;-78
2022/06/18 08:57:21;;;;;;;;;14.67;13.67;;;;;30.33;100.00;101245.59;5042055;28;45445;-81
2022/06/18 08:59:52;;;;;;;;;12.33;12.00;;;;;30.44;100.00;101248.97;5059537;28;46160;-76
2022/06/18 09:02:25;;;;;;;;;13.67;12.67;;;;;30.56;100.00;101248.50;5079777;28;45425;-77
2022/06/18 09:05:18;;;;;;;;;13.33;13.33;;;;;30.67;100.00;101234.66;5087323;27;45439;-77
2022/06/18 09:08:04;;;;;;;;;12.33;12.33;;;;;30.76;100.00;101235.59;5064917;28;45748;-78
2022/06/18 09:10:48;;;;;;;;;14.00;13.00;;;;;30.84;100.00;101237.69;5085436;28;45363;-76
2022/06/18 09:13:21;;;;;;;;;13.33;13.33;;;;;30.90;100.00;101232.91;5081346;28;45558;-77
2022/06/18 09:15:53;;;;;;;;;15.33;15.33;;;;;31.02;100.00;101226.09;5078608;28;45287;-77
2022/06/18 09:18:31;;;;;;;;;15.33;14.67;;;;;31.11;100.00;101221.56;5079615;28;45209;-76
2022/06/18 09:21:03;;;;;;;;;14.00;14.00;;;;;31.15;100.00;101214.34;5058188;28;47260;-75
2022/06/18 09:23:33;;;;;;;;;13.67;13.33;;;;;31.29;100.00;101216.28;5060054;28;48257;-75
2022/06/18 09:26:00;;;;;;;;;15.00;14.33;;;;;31.38;100.00;101219.97;5082477;27;45377;-75
2022/06/18 09:28:44;;;;;;;;;13.33;13.33;;;;;31.51;100.00;101210.09;5060587;28;45316;-75
2022/06/18 09:31:43;;;;;;;;;15.33;14.33;;;;;31.58;100.00;101207.78;5063596;28;45415;-75
2022/06/18 09:34:16;;;;;;;;;13.33;13.33;;;;;31.70;100.00;101209.16;5071096;27;47405;-76
2022/06/18 09:36:45;;;;;;;;;13.00;12.67;;;;;31.75;100.00;101201.63;5076766;27;45256;-77
2022/06/18 09:39:24;;;;;;;;;14.00;12.67;;;;;31.85;100.00;101211.59;5080767;27;45228;-77
2022/06/18 09:42:00;;;;;;;;;10.67;10.67;;;;;31.93;100.00;101218.28;5062058;28;46428;-77
2022/06/18 09:44:37;;;;;;;;;13.33;13.33;;;;;31.98;100.00;101203.63;5079584;28;45484;-76
2022/06/18 09:47:39;;;;;;;;;14.00;14.00;;;;;32.04;100.00;101201.56;5075791;28;45394;-75
2022/06/18 09:50:31;;;;;;;;;14.00;14.00;;;;;32.19;100.00;101197.66;5072838;27;45671;-77
2022/06/18 09:53:15;;;;;;;;;15.00;14.00;;;;;32.28;100.00;101190.28;5070868;28;45220;-76
2022/06/18 09:55:45;;;;;;;;;13.67;12.67;;;;;32.30;100.00;101174.31;5066029;28;45355;-76
2022/06/18 09:58:18;;;;;;;;;11.67;11.67;;;;;32.51;100.00;101182.06;5053384;28;45368;-76
2022/06/18 10:00:45;;;;;;;;;13.67;13.67;;;;;32.55;100.00;101177.56;5059654;28;45390;-77
2022/06/18 10:06:52;;;;;;;;;16.67;15.67;;;;;32.65;100.00;101175.66;5059068;28;45321;-77
2022/06/18 10:08:48;;;;;;;;;13.33;13.33;;;;;32.83;100.00;101182.06;5063980;28;45404;-76
2022/06/18 10:11:15;;;;;;;;;14.67;14.67;;;;;32.94;100.00;101177.91;5073674;27;45372;-78
2022/06/18 10:13:56;;;;;;;;;15.00;15.00;;;;;33.05;100.00;101170.22;5073341;27;45379;-77
2022/06/18 10:16:27;;;;;;;;;13.00;13.00;;;;;33.16;100.00;101170.72;5073744;28;46323;-77
2022/06/18 10:19:09;;;;;;;;;13.00;13.00;;;;;33.24;100.00;101169.13;5068500;28;45458;-79
2022/06/18 10:21:45;;;;;;;;;13.00;13.00;;;;;33.32;100.00;101160.09;5059040;28;45367;-79
2022/06/18 10:24:35;;;;;;;;;11.00;11.00;;;;;33.54;100.00;101154.78;5072263;28;45343;-79
2022/06/18 10:27:08;;;;;;;;;14.00;14.00;;;;;33.67;100.00;101156.63;5072325;28;45367;-78
2022/06/18 10:30:02;;;;;;;;;12.00;12.00;;;;;33.85;100.00;101140.88;5067527;28;45265;-79
2022/06/18 10:32:42;;;;;;;;;11.67;11.67;;;;;34.00;99.10;101138.78;5061396;28;45373;-79
2022/06/18 10:35:19;;;;;;;;;11.33;11.33;;;;;34.15;100.00;101134.72;5058789;28;45293;-77
2022/06/18 10:38:00;;;;;;;;;10.00;9.67;;;;;34.31;100.00;101131.44;5061952;28;45306;-78
2022/06/18 10:40:31;;;;;;;;;12.67;12.67;;;;;34.44;100.00;101129.63;5060182;28;46212;-76
2022/06/18 10:43:35;;;;;;;;;13.67;12.33;;;;;34.56;100.00;101123.44;5071518;28;45418;-77
2022/06/18 10:46:06;;;;;;;;;11.00;10.67;;;;;34.75;100.00;101121.09;5061074;28;45510;-78
2022/06/18 10:48:33;;;;;;;;;12.67;12.67;;;;;34.93;100.00;101122.97;5060246;28;47352;-77
2022/06/18 10:51:02;;;;;;;;;11.33;11.33;;;;;35.01;98.35;101108.28;5072809;28;45321;-76
2022/06/18 10:53:44;;;;;;;;;13.67;13.67;;;;;35.23;99.40;101109.19;5059575;28;45375;-79
2022/06/18 10:56:20;;;;;;;;;11.67;11.33;;;;;35.35;97.96;101106.50;5077341;28;45363;-78
2022/06/18 10:58:49;;;;;;;;;11.00;11.00;;;;;35.53;100.00;101103.59;5073067;28;46012;-78
2022/06/18 11:01:16;;;;;;;;;12.33;12.33;;;;;35.71;100.00;101101.53;5059199;28;45277;-79
2022/06/18 11:03:54;;;;;;;;;11.00;11.00;;;;;35.93;96.07;101101.47;5069837;28;45390;-78
2022/06/18 11:06:20;;;;;;;;;11.67;10.67;;;;;36.07;97.84;101079.88;5078726;28;45642;-79
2022/06/18 11:08:52;;;;;;;;;11.00;11.00;;;;;36.23;100.00;101106.88;5078382;28;45489;-79
2022/06/18 11:11:23;;;;;;;;;9.00;9.00;;;;;36.48;95.87;101093.09;5076167;28;45274;-77
2022/06/18 11:13:49;;;;;;;;;13.67;11.33;;;;;36.56;99.00;101092.19;5050386;28;45540;-75
2022/06/18 11:16:28;;;;;;;;;12.00;11.33;;;;;36.71;95.05;101078.81;5074783;28;45358;-74
2022/06/18 11:18:57;;;;;;;;;11.67;10.67;;;;;36.85;97.00;101073.75;5059889;28;47060;-74
2022/06/18 11:21:25;;;;;;;;;8.00;8.00;;;;;36.97;99.31;101070.16;5078511;28;46726;-74
2022/06/18 11:24:05;;;;;;;;;10.00;8.33;;;;;37.04;93.50;101064.03;5059581;28;45427;-75
2022/06/18 11:26:31;;;;;;;;;10.67;10.67;;;;;37.19;96.26;101064.50;5060146;28;46335;-74